Wednesday, October 18, 2017, 3:39 AM EDT
Back to Local

KTAN, Taunton Municipal Airport

Location: East Taunton, MA, United States Lat: 41.883
Local Time: 3:39 AM EDT ( 7:39 GMT) Lon: -71.017
Time Zone: US/Eastern Elev: 42 ft

Show me the last for .
Show Decoded

2017-10-18 02:52 METAR KTAN 180652Z AUTO 23004KT 10SM CLR 09/05 A3023 RMK AO2 SLP236 T00890050 =
2017-10-18 01:52 METAR KTAN 180552Z AUTO 00000KT 10SM CLR 04/03 A3024 RMK AO2 SLP240 T00440028
                 10072 20017 56009 =
2017-10-18 00:52 METAR KTAN 180452Z AUTO 22003KT 10SM CLR 03/02 A3025 RMK AO2 SLP244 T00330017
                 401440011 =
2017-10-17 23:52 METAR KTAN 180352Z AUTO 00000KT 10SM CLR 03/02 A3025 RMK AO2 SLP244 T00280017 =
2017-10-17 22:52 METAR KTAN 180252Z AUTO 00000KT 10SM CLR 02/01 A3027 RMK AO2 SLP249 T00220011
                 50004 =
2017-10-17 21:52 METAR KTAN 180152Z AUTO 00000KT 10SM CLR 03/02 A3027 RMK AO2 SLP250 T00330022 =
2017-10-17 20:52 METAR KTAN 180052Z AUTO 16003KT 10SM CLR 06/02 A3026 RMK AO2 SLP247 T00560022 =
2017-10-17 19:52 METAR KTAN 172352Z AUTO 17003KT 10SM CLR 07/02 A3025 RMK AO2 SLP244 T00720022
                 10144 20067 53009 =
2017-10-17 18:52 METAR KTAN 172252Z AUTO 20004KT 10SM CLR 08/02 A3024 RMK AO2 SLP241 T00830017 =
2017-10-17 17:52 METAR KTAN 172152Z AUTO 16003KT 10SM CLR 09/02 A3022 RMK AO2 SLP233 T00940022 =
2017-10-17 16:52 METAR KTAN 172052Z AUTO 23004KT 10SM CLR 14/M01 A3023 RMK AO2 SLP235 T01391011
                 56009 =
2017-10-17 15:52 METAR KTAN 171952Z AUTO 26005KT 10SM CLR 14/M02 A3023 RMK AO2 SLP237 T01391017 =
2017-10-17 14:52 METAR KTAN 171852Z AUTO 25004KT 10SM CLR 14/M02 A3024 RMK AO2 SLP240 T01391017 =
2017-10-17 13:52 METAR KTAN 171752Z AUTO VRB04KT 10SM CLR 13/M01 A3025 RMK AO2 SLP245 T01331011
                 10139 20039 58011 =
2017-10-17 12:52 METAR KTAN 171652Z AUTO 00000KT 10SM CLR 13/M01 A3026 RMK AO2 SLP248 T01281011 =
2017-10-17 11:52 METAR KTAN 171552Z AUTO VRB04KT 10SM CLR 12/M01 A3028 RMK AO2 SLP253 T01171011 =
2017-10-17 10:52 METAR KTAN 171452Z AUTO 10SM CLR 12/00 A3029 RMK AO2 SLP256 T01170000 50004 =
2017-10-17 09:52 METAR KTAN 171352Z AUTO VRB06KT 10SM CLR 09/00 A3030 RMK AO2 SLP259 T00890000 =
2017-10-17 08:52 METAR KTAN 171252Z AUTO 35005KT 10SM CLR 07/01 A3029 RMK AO2 SLP259 T00720006 =
2017-10-17 07:52 METAR KTAN 171152Z AUTO VRB03KT 10SM CLR 04/00 A3027 RMK AO2 SLP252 T00390000
                 10056 20011 53020 =
2017-10-17 06:52 METAR KTAN 171052Z AUTO 00000KT 10SM CLR 02/M01 A3025 RMK AO2 SLP243 T00171006 =
2017-10-17 05:52 METAR KTAN 170952Z AUTO 33003KT 10SM CLR 03/00 A3024 RMK AO2 SLP239 T00330000 =
2017-10-17 04:52 METAR KTAN 170852Z AUTO 33003KT 10SM SCT042 03/00 A3022 RMK AO2 SLP232 T00330000
                 53016 =
2017-10-17 03:52 METAR KTAN 170752Z AUTO 31003KT 10SM CLR 03/00 A3020 RMK AO2 SLP225 T00330000 =

Support USWX by starting your Amazon purchase here.